Ahsahka, Idaho
Current Conditions -  °F | °C
As of 12:56 AM on Tuesday 21 Oct 2014 (Local Time) from KLWS Reporting Station
Overcast Overcast  
Wind Chill: 55°   Ceiling: 7000
Heat Index: 55°   Visibility: 10mi
Dew Point: 44°   Wind: 6mph
Humidity: 67%   Direction: 160°SSE
Pressure: 29.86"   Gusts: NA
Location:  46.51°N, 116.35°W
Report Text: KLWS 210756Z AUTO 16005KT 10SM OVC070 13/07 A2986 RMK AO2 SLP109 T01280067 402390067
Loading
Personal Weather Stations






























Interactive Weather Map
Tropical Storm Tracking
New forecast layout! Learn more

10-Day Weather Forecast

Advertisements
Track Severe Weather on mobile